createdAt,value
2022-12-31T00:01:27.390Z,83.92
2022-12-31T00:03:55.250Z,84.30
2022-12-31T00:06:33.199Z,84.25
2022-12-31T00:09:01.302Z,84.12
2022-12-31T00:11:28.857Z,83.65
2022-12-31T00:13:55.627Z,84.39
2022-12-31T00:16:26.852Z,83.86
2022-12-31T00:18:55.928Z,83.88
2022-12-31T00:21:22.743Z,83.28
2022-12-31T00:23:49.547Z,84.23
2022-12-31T00:26:18.959Z,82.90
2022-12-31T00:28:45.640Z,83.34
2022-12-31T00:31:17.979Z,83.97
2022-12-31T00:33:45.073Z,83.57
2022-12-31T00:36:14.379Z,83.92
2022-12-31T00:38:43.037Z,83.11
2022-12-31T00:41:10.779Z,83.08
2022-12-31T00:43:37.398Z,83.35
2022-12-31T00:46:05.187Z,83.24
2022-12-31T00:48:32.701Z,82.64
2022-12-31T00:50:59.234Z,83.52
2022-12-31T00:53:26.314Z,82.80
2022-12-31T00:55:52.904Z,82.62
2022-12-31T00:58:19.395Z,83.09
2022-12-31T01:00:45.702Z,82.67
2022-12-31T01:03:12.004Z,82.61
2022-12-31T01:05:38.445Z,82.40
2022-12-31T01:08:06.239Z,82.30
2022-12-31T01:10:32.707Z,82.56
2022-12-31T01:13:00.033Z,82.71
2022-12-31T01:15:26.552Z,82.45
2022-12-31T01:17:52.928Z,81.90
2022-12-31T01:20:19.208Z,81.67
2022-12-31T01:22:45.499Z,81.68
2022-12-31T01:25:11.870Z,81.01
2022-12-31T01:27:38.314Z,81.01
2022-12-31T01:30:05.409Z,80.98
2022-12-31T01:32:31.786Z,80.32
2022-12-31T01:34:58.112Z,80.65
2022-12-31T01:37:24.441Z,80.96
2022-12-31T01:39:50.734Z,80.98
2022-12-31T01:42:17.034Z,81.38
2022-12-31T01:44:50.861Z,82.01
2022-12-31T01:47:27.658Z,82.18
2022-12-31T01:50:03.031Z,82.95
2022-12-31T01:52:34.593Z,82.57
2022-12-31T01:55:39.837Z,83.25
2022-12-31T01:58:17.204Z,82.70
2022-12-31T02:00:44.349Z,83.57
2022-12-31T02:03:12.257Z,82.98
2022-12-31T02:06:05.207Z,83.33
2022-12-31T02:08:34.612Z,83.06
2022-12-31T02:11:20.811Z,83.64
2022-12-31T02:13:47.317Z,83.67
2022-12-31T02:16:21.363Z,83.08
2022-12-31T02:19:05.927Z,83.23
2022-12-31T02:21:57.671Z,83.54
2022-12-31T02:24:51.042Z,83.15
2022-12-31T02:27:34.401Z,82.93
2022-12-31T02:30:16.930Z,83.25
2022-12-31T02:32:52.151Z,83.35
2022-12-31T02:35:30.737Z,83.14
2022-12-31T02:38:02.759Z,82.92
2022-12-31T02:40:29.649Z,82.92
2022-12-31T02:42:56.036Z,82.95
2022-12-31T02:45:30.667Z,83.42
2022-12-31T02:48:22.389Z,82.97
2022-12-31T02:51:08.878Z,83.09
2022-12-31T02:53:47.371Z,83.19
2022-12-31T02:56:23.893Z,82.85
2022-12-31T02:59:16.889Z,83.14
2022-12-31T03:01:46.839Z,82.86
2022-12-31T03:04:14.476Z,82.96
2022-12-31T03:06:42.284Z,82.28
2022-12-31T03:09:08.662Z,82.65
2022-12-31T03:11:34.996Z,82.47
2022-12-31T03:14:01.295Z,82.27
2022-12-31T03:16:27.700Z,82.53
2022-12-31T03:18:54.077Z,82.17
2022-12-31T03:21:20.422Z,81.69
2022-12-31T03:23:46.704Z,81.61
2022-12-31T03:26:13.162Z,82.15
2022-12-31T03:28:41.902Z,81.67
2022-12-31T03:31:08.525Z,82.19
2022-12-31T03:33:37.679Z,82.20
2022-12-31T03:36:06.282Z,81.87
2022-12-31T03:38:32.579Z,82.62
2022-12-31T03:40:59.128Z,82.55
2022-12-31T03:43:25.882Z,82.74
2022-12-31T03:45:53.757Z,83.09
2022-12-31T03:48:24.028Z,82.62
2022-12-31T03:50:50.890Z,82.93
2022-12-31T03:53:17.419Z,83.14
2022-12-31T03:55:43.847Z,83.20
2022-12-31T03:58:10.376Z,82.10
2022-12-31T04:00:36.699Z,81.91
2022-12-31T04:03:03.100Z,81.91
2022-12-31T04:05:29.437Z,81.97
2022-12-31T04:07:55.751Z,82.19
2022-12-31T04:10:22.106Z,82.11
2022-12-31T04:12:48.539Z,81.77
2022-12-31T04:15:19.058Z,82.24
2022-12-31T04:17:45.881Z,82.31
2022-12-31T04:20:12.753Z,82.40
2022-12-31T04:22:39.293Z,82.55
2022-12-31T04:25:07.014Z,82.30
2022-12-31T04:27:33.328Z,82.03
2022-12-31T04:29:59.608Z,82.33
2022-12-31T04:32:25.895Z,82.09
2022-12-31T04:34:52.217Z,81.78
2022-12-31T04:37:18.559Z,81.28
2022-12-31T04:39:44.960Z,81.37
2022-12-31T04:42:11.259Z,81.28
2022-12-31T04:44:37.573Z,80.91
2022-12-31T04:47:03.958Z,81.04
2022-12-31T04:49:30.253Z,81.42
2022-12-31T04:51:56.531Z,80.56
2022-12-31T04:54:22.898Z,81.12
2022-12-31T04:56:49.383Z,81.34
2022-12-31T04:59:15.677Z,81.21
2022-12-31T05:01:42.035Z,81.32
2022-12-31T05:04:08.392Z,80.83
2022-12-31T05:06:34.735Z,81.08
2022-12-31T05:09:01.239Z,81.04
2022-12-31T05:11:27.670Z,80.56
2022-12-31T05:13:53.960Z,81.65
2022-12-31T05:16:20.443Z,81.44
2022-12-31T05:18:46.948Z,82.12
2022-12-31T05:21:19.541Z,82.41
2022-12-31T05:23:46.006Z,83.04
2022-12-31T05:26:12.447Z,81.96
2022-12-31T05:28:38.825Z,82.10
2022-12-31T05:31:05.187Z,81.95
2022-12-31T05:33:31.497Z,81.99
2022-12-31T05:35:57.896Z,82.15
2022-12-31T05:38:25.397Z,81.97
2022-12-31T05:41:05.703Z,81.87
2022-12-31T05:43:32.171Z,81.69
2022-12-31T05:46:03.102Z,81.59
2022-12-31T05:48:30.356Z,81.23
2022-12-31T05:50:56.793Z,81.39
2022-12-31T05:53:23.087Z,81.10
2022-12-31T05:55:49.637Z,81.07
2022-12-31T05:58:16.192Z,80.77
2022-12-31T06:00:42.865Z,80.82
2022-12-31T06:03:09.440Z,80.90
2022-12-31T06:05:39.408Z,80.75
2022-12-31T06:08:05.833Z,80.80
2022-12-31T06:10:32.257Z,81.26
2022-12-31T06:12:58.558Z,81.12
2022-12-31T06:15:24.945Z,81.06
2022-12-31T06:17:51.277Z,80.33
2022-12-31T06:20:17.696Z,80.95
2022-12-31T06:22:44.060Z,81.01
2022-12-31T06:25:10.445Z,80.83
2022-12-31T06:27:36.774Z,81.09
2022-12-31T06:30:03.250Z,81.04
2022-12-31T06:32:29.560Z,80.92
2022-12-31T06:34:55.877Z,80.94
2022-12-31T06:37:22.292Z,80.78
2022-12-31T06:39:48.951Z,80.66
2022-12-31T06:42:15.291Z,80.89
2022-12-31T06:44:41.592Z,80.56
2022-12-31T06:47:07.955Z,81.01
2022-12-31T06:49:34.246Z,80.93
2022-12-31T06:52:00.570Z,81.17
2022-12-31T06:54:26.944Z,80.41
2022-12-31T06:56:53.508Z,81.01
2022-12-31T06:59:28.182Z,80.38
2022-12-31T07:02:12.848Z,80.24
2022-12-31T07:05:08.788Z,80.27
2022-12-31T07:07:48.470Z,79.95
2022-12-31T07:10:29.422Z,80.32
2022-12-31T07:13:34.055Z,79.40
2022-12-31T07:16:09.680Z,79.62
2022-12-31T07:18:56.322Z,79.64
2022-12-31T07:21:34.858Z,79.58
2022-12-31T07:24:01.737Z,79.83
2022-12-31T07:26:55.993Z,79.59
2022-12-31T07:29:29.901Z,78.88
2022-12-31T07:32:45.514Z,79.05
2022-12-31T07:35:31.227Z,78.43
2022-12-31T07:38:10.223Z,78.15
2022-12-31T07:40:54.057Z,78.38
2022-12-31T07:43:54.609Z,77.56
2022-12-31T07:46:53.958Z,77.43
2022-12-31T07:49:20.579Z,77.08
2022-12-31T07:51:47.542Z,77.30
2022-12-31T07:54:14.542Z,76.69
2022-12-31T07:56:42.141Z,77.07
2022-12-31T07:59:31.543Z,76.04
2022-12-31T08:02:19.907Z,75.53
2022-12-31T08:05:15.583Z,75.04
2022-12-31T08:07:58.385Z,75.02
2022-12-31T08:10:40.417Z,74.73
2022-12-31T08:13:11.772Z,74.79
2022-12-31T08:15:40.326Z,75.18
2022-12-31T08:18:07.895Z,74.19
2022-12-31T08:20:49.428Z,74.38
2022-12-31T08:23:28.919Z,74.01
2022-12-31T08:26:18.441Z,74.76
2022-12-31T08:29:10.450Z,73.98
2022-12-31T08:32:12.643Z,73.13
2022-12-31T08:34:55.388Z,72.63
2022-12-31T08:37:27.175Z,72.51
2022-12-31T08:40:30.922Z,72.17
2022-12-31T08:43:15.948Z,71.94
2022-12-31T08:45:48.542Z,72.22
2022-12-31T08:48:29.542Z,71.87
2022-12-31T08:50:56.241Z,72.33
2022-12-31T08:53:22.783Z,70.54
2022-12-31T08:55:56.752Z,70.42
2022-12-31T08:58:41.745Z,70.23
2022-12-31T09:01:08.800Z,70.21
2022-12-31T09:04:11.888Z,70.07
2022-12-31T09:06:44.187Z,70.40
2022-12-31T09:09:26.847Z,70.61
2022-12-31T09:12:15.206Z,69.75
2022-12-31T09:14:55.828Z,69.33
2022-12-31T09:17:39.653Z,68.48
2022-12-31T09:20:06.801Z,69.54
2022-12-31T09:22:33.258Z,69.41
2022-12-31T09:24:59.908Z,69.20
2022-12-31T09:27:40.705Z,68.68
2022-12-31T09:30:11.541Z,69.63
2022-12-31T09:33:01.034Z,68.64
2022-12-31T09:35:38.416Z,68.84
2022-12-31T09:38:16.548Z,69.70
2022-12-31T09:41:04.643Z,69.20
2022-12-31T09:44:12.084Z,69.22
2022-12-31T09:47:06.207Z,68.91
2022-12-31T09:49:54.502Z,69.33
2022-12-31T09:52:58.144Z,69.01
2022-12-31T09:55:24.436Z,68.78
2022-12-31T09:58:02.756Z,68.95
2022-12-31T10:00:43.342Z,68.86
2022-12-31T10:03:40.513Z,68.03
2022-12-31T10:06:09.933Z,68.54
2022-12-31T10:09:10.303Z,68.25
2022-12-31T10:11:46.066Z,68.18
2022-12-31T10:14:15.336Z,68.26
2022-12-31T10:17:14.577Z,67.31
2022-12-31T10:19:49.913Z,67.96
2022-12-31T10:22:19.308Z,68.28
2022-12-31T10:24:54.811Z,66.75
2022-12-31T10:27:48.631Z,66.81
2022-12-31T10:30:20.820Z,66.77
2022-12-31T10:33:12.017Z,67.03
2022-12-31T10:35:53.667Z,67.17
2022-12-31T10:38:38.849Z,67.02
2022-12-31T10:41:23.290Z,66.54
2022-12-31T10:44:07.972Z,66.17
2022-12-31T10:47:07.565Z,66.57
2022-12-31T10:50:01.505Z,66.25
2022-12-31T10:52:52.172Z,66.36
2022-12-31T10:55:48.985Z,65.93
2022-12-31T10:58:51.160Z,65.52
2022-12-31T11:01:25.689Z,65.41
2022-12-31T11:04:23.310Z,64.86
2022-12-31T11:06:52.524Z,64.42
2022-12-31T11:09:56.563Z,64.47
2022-12-31T11:12:41.259Z,64.68
2022-12-31T11:15:25.078Z,63.82
2022-12-31T11:18:17.675Z,63.64
2022-12-31T11:21:05.582Z,63.80
2022-12-31T11:23:57.832Z,63.58
2022-12-31T11:27:16.562Z,64.26
2022-12-31T11:29:48.667Z,64.41
2022-12-31T11:32:35.795Z,64.12
2022-12-31T11:35:23.266Z,63.45
2022-12-31T11:38:19.797Z,64.15
2022-12-31T11:40:59.914Z,63.56
2022-12-31T11:43:35.008Z,64.10
2022-12-31T11:46:33.986Z,63.98
2022-12-31T11:49:13.333Z,64.38
2022-12-31T11:51:51.052Z,63.98
2022-12-31T11:54:32.273Z,64.21
2022-12-31T11:57:10.772Z,63.81
2022-12-31T11:59:37.098Z,64.28
2022-12-31T12:02:27.193Z,63.57
2022-12-31T12:04:56.852Z,64.18
2022-12-31T12:07:23.502Z,63.91
2022-12-31T12:09:51.511Z,64.38
2022-12-31T12:12:17.845Z,63.80
2022-12-31T12:14:45.016Z,63.13
2022-12-31T12:17:18.394Z,63.61
2022-12-31T12:19:47.488Z,63.89
2022-12-31T12:22:25.795Z,63.34
2022-12-31T12:25:01.681Z,63.99
2022-12-31T12:27:36.020Z,63.06
2022-12-31T12:30:23.065Z,63.19
2022-12-31T12:33:00.151Z,63.45
2022-12-31T12:35:29.765Z,63.85
2022-12-31T12:38:05.317Z,62.79
2022-12-31T12:40:34.471Z,63.67
2022-12-31T12:43:01.856Z,64.10
2022-12-31T12:45:36.460Z,62.96
2022-12-31T12:48:13.229Z,63.40
2022-12-31T12:50:44.005Z,63.95
2022-12-31T12:53:44.907Z,63.71
2022-12-31T12:56:36.973Z,63.20
2022-12-31T12:59:37.379Z,63.31
2022-12-31T13:02:22.328Z,62.92
2022-12-31T13:05:12.447Z,63.47
2022-12-31T13:08:01.032Z,63.68
2022-12-31T13:10:53.504Z,63.32
2022-12-31T13:13:39.943Z,63.79
2022-12-31T13:16:31.534Z,63.63
2022-12-31T13:19:07.987Z,63.91
2022-12-31T13:21:40.473Z,64.26
2022-12-31T13:24:21.991Z,64.38
2022-12-31T13:26:55.836Z,64.33
2022-12-31T13:29:26.146Z,64.23
2022-12-31T13:31:54.569Z,64.12
2022-12-31T13:34:25.654Z,65.01
2022-12-31T13:36:54.197Z,64.77
2022-12-31T13:39:25.289Z,64.76
2022-12-31T13:41:58.988Z,64.49
2022-12-31T13:44:37.829Z,64.42
2022-12-31T13:47:33.871Z,64.32
2022-12-31T13:50:29.037Z,64.67
2022-12-31T13:53:16.663Z,63.97
2022-12-31T13:55:56.839Z,64.77
2022-12-31T13:58:41.192Z,64.64
2022-12-31T14:01:20.886Z,64.63
2022-12-31T14:04:11.977Z,64.57
2022-12-31T14:06:44.432Z,65.25
2022-12-31T14:09:16.850Z,65.49
2022-12-31T14:11:59.723Z,65.39
2022-12-31T14:14:36.377Z,65.45
2022-12-31T14:17:17.079Z,65.96
2022-12-31T14:20:01.521Z,65.55
2022-12-31T14:22:44.020Z,65.62
2022-12-31T14:25:39.814Z,66.02
2022-12-31T14:28:13.802Z,66.17
2022-12-31T14:30:43.908Z,66.98
2022-12-31T14:33:34.213Z,66.94
2022-12-31T14:36:39.469Z,67.64
2022-12-31T14:39:26.998Z,67.70
2022-12-31T14:42:11.575Z,67.74
2022-12-31T14:44:46.053Z,67.66
2022-12-31T14:47:27.714Z,67.99
2022-12-31T14:50:05.162Z,68.22
2022-12-31T14:52:34.673Z,68.58
2022-12-31T14:55:10.046Z,69.26
2022-12-31T14:58:09.634Z,69.13
2022-12-31T15:00:33.823Z,69.41
2022-12-31T15:03:04.679Z,70.06
2022-12-31T15:05:34.539Z,69.84
2022-12-31T15:08:20.943Z,70.14
2022-12-31T15:11:30.334Z,70.48
2022-12-31T15:14:25.709Z,71.29
2022-12-31T15:17:04.460Z,71.71
2022-12-31T15:19:55.276Z,71.67
2022-12-31T15:22:36.943Z,71.70
2022-12-31T15:25:04.422Z,71.30
2022-12-31T15:27:35.722Z,72.80
2022-12-31T15:30:03.767Z,72.05
2022-12-31T15:32:42.507Z,73.04
2022-12-31T15:35:20.912Z,72.65
2022-12-31T15:38:10.127Z,73.46
2022-12-31T15:40:48.511Z,72.75
2022-12-31T15:43:25.874Z,73.47
2022-12-31T15:45:54.964Z,73.18
2022-12-31T15:48:43.187Z,74.63
2022-12-31T15:51:17.739Z,74.03
2022-12-31T15:53:50.206Z,74.47
2022-12-31T15:56:23.466Z,74.37
2022-12-31T15:58:54.225Z,74.00
2022-12-31T16:01:29.382Z,75.24
2022-12-31T16:04:02.471Z,75.96
2022-12-31T16:06:31.512Z,75.77
2022-12-31T16:08:58.362Z,74.65
2022-12-31T16:11:25.570Z,75.35
2022-12-31T16:13:54.443Z,75.34
2022-12-31T16:16:22.443Z,75.37
2022-12-31T16:18:49.335Z,75.11
2022-12-31T16:21:33.592Z,76.93
2022-12-31T16:24:03.290Z,75.75
2022-12-31T16:26:43.464Z,76.81
2022-12-31T16:29:18.412Z,77.88
2022-12-31T16:31:46.133Z,76.59
2022-12-31T16:34:15.126Z,76.17
2022-12-31T16:36:42.019Z,76.49
2022-12-31T16:39:25.681Z,76.70
2022-12-31T16:41:53.100Z,76.67
2022-12-31T16:44:27.116Z,77.79
2022-12-31T16:46:57.777Z,77.27
2022-12-31T16:49:25.476Z,76.39
2022-12-31T16:51:54.741Z,77.16
2022-12-31T16:54:29.983Z,77.34
2022-12-31T16:56:58.573Z,77.17
2022-12-31T16:59:35.121Z,77.85
2022-12-31T17:02:05.185Z,78.38
2022-12-31T17:04:31.627Z,77.57
2022-12-31T17:07:27.729Z,79.19
2022-12-31T17:10:32.350Z,79.54
2022-12-31T17:13:28.853Z,78.35
2022-12-31T17:15:47.565Z,77.92
2022-12-31T17:18:26.148Z,78.55
2022-12-31T17:20:54.329Z,78.39
2022-12-31T17:23:28.145Z,79.70
2022-12-31T17:25:59.064Z,78.64
2022-12-31T17:28:26.500Z,79.99
2022-12-31T17:30:53.092Z,79.78
2022-12-31T17:33:22.096Z,79.43
2022-12-31T17:35:55.318Z,79.65
2022-12-31T17:38:21.571Z,79.42
2022-12-31T17:41:06.086Z,80.58
2022-12-31T17:43:35.629Z,80.06
2022-12-31T17:46:03.375Z,79.73
2022-12-31T17:48:29.748Z,78.23
2022-12-31T17:51:00.704Z,78.59
2022-12-31T17:53:27.381Z,78.44
2022-12-31T17:55:59.691Z,79.36
2022-12-31T17:58:31.449Z,78.54
2022-12-31T18:00:59.089Z,79.10
2022-12-31T18:03:25.652Z,79.01
2022-12-31T18:05:52.095Z,78.49
2022-12-31T18:08:18.531Z,78.54
2022-12-31T18:10:45.102Z,78.93
2022-12-31T18:13:18.293Z,78.92
2022-12-31T18:15:45.072Z,78.62
2022-12-31T18:18:24.320Z,78.77
2022-12-31T18:21:03.645Z,78.49
2022-12-31T18:23:41.401Z,79.45
2022-12-31T18:26:13.589Z,78.78
2022-12-31T18:28:39.970Z,78.51
2022-12-31T18:31:06.657Z,78.17
2022-12-31T18:33:33.108Z,78.36
2022-12-31T18:36:14.751Z,78.76
2022-12-31T18:38:41.772Z,78.15
2022-12-31T18:41:17.251Z,78.87
2022-12-31T18:43:43.783Z,78.29
2022-12-31T18:46:14.795Z,78.48
2022-12-31T18:48:41.182Z,78.49
2022-12-31T18:51:13.637Z,78.29
2022-12-31T18:53:40.095Z,78.11
2022-12-31T18:56:10.879Z,78.10
2022-12-31T18:58:37.262Z,77.47
2022-12-31T19:01:04.007Z,77.61
2022-12-31T19:03:30.527Z,78.27
2022-12-31T19:05:56.886Z,78.65
2022-12-31T19:08:23.608Z,77.74
2022-12-31T19:10:51.936Z,78.50
2022-12-31T19:13:19.638Z,78.30
2022-12-31T19:15:51.527Z,78.20
2022-12-31T19:18:18.652Z,77.98
2022-12-31T19:20:45.539Z,77.82
2022-12-31T19:23:18.463Z,77.97
2022-12-31T19:25:45.990Z,78.40
2022-12-31T19:28:18.397Z,78.34
2022-12-31T19:30:45.198Z,78.20
2022-12-31T19:33:11.778Z,78.13
2022-12-31T19:35:39.315Z,78.50
2022-12-31T19:38:11.851Z,78.68
2022-12-31T19:40:40.130Z,78.81
2022-12-31T19:43:14.231Z,79.13
2022-12-31T19:45:42.019Z,77.83
2022-12-31T19:48:17.279Z,79.23
2022-12-31T19:50:52.101Z,78.09
2022-12-31T19:53:22.196Z,78.63
2022-12-31T19:55:49.493Z,79.26
2022-12-31T19:58:22.049Z,79.05
2022-12-31T20:00:54.808Z,78.23
2022-12-31T20:03:23.707Z,78.27
2022-12-31T20:05:50.116Z,78.88
2022-12-31T20:08:17.009Z,78.92
2022-12-31T20:10:43.851Z,79.41
2022-12-31T20:13:10.341Z,78.96
2022-12-31T20:15:40.265Z,78.79
2022-12-31T20:18:06.560Z,78.45
2022-12-31T20:20:32.930Z,77.95
2022-12-31T20:22:59.290Z,78.35
2022-12-31T20:25:25.754Z,78.58
2022-12-31T20:27:53.842Z,77.59
2022-12-31T20:30:20.719Z,77.25
2022-12-31T20:32:47.079Z,77.61
2022-12-31T20:35:13.402Z,77.59
2022-12-31T20:37:39.822Z,77.33
2022-12-31T20:40:06.714Z,77.13
2022-12-31T20:42:33.221Z,77.24
2022-12-31T20:44:59.706Z,77.19
2022-12-31T20:47:26.010Z,76.67
2022-12-31T20:50:11.040Z,76.91
2022-12-31T20:52:38.555Z,76.59
2022-12-31T20:55:05.392Z,76.74
2022-12-31T20:57:33.944Z,76.89
2022-12-31T21:00:00.915Z,77.26
2022-12-31T21:02:40.888Z,77.02
2022-12-31T21:05:09.307Z,76.46
2022-12-31T21:07:35.885Z,77.24
2022-12-31T21:10:02.283Z,76.58
2022-12-31T21:12:28.580Z,77.37
2022-12-31T21:14:54.985Z,76.96
2022-12-31T21:17:21.307Z,77.07
2022-12-31T21:19:47.638Z,76.85
2022-12-31T21:22:13.970Z,76.77
2022-12-31T21:24:40.259Z,77.22
2022-12-31T21:27:06.716Z,77.03
2022-12-31T21:29:35.510Z,77.14
2022-12-31T21:32:03.884Z,76.81
2022-12-31T21:34:30.283Z,76.87
2022-12-31T21:36:56.600Z,76.87
2022-12-31T21:39:22.995Z,76.60
2022-12-31T21:41:49.316Z,76.94
2022-12-31T21:44:15.618Z,76.91
2022-12-31T21:47:00.895Z,76.46
2022-12-31T21:49:28.334Z,75.85
2022-12-31T21:51:54.667Z,76.07
2022-12-31T21:54:21.045Z,75.83
2022-12-31T21:56:47.343Z,76.45
2022-12-31T21:59:13.766Z,76.47
2022-12-31T22:01:41.314Z,76.38
2022-12-31T22:04:12.945Z,76.12
2022-12-31T22:06:48.782Z,75.99
2022-12-31T22:09:15.204Z,76.31
2022-12-31T22:11:41.546Z,75.74
2022-12-31T22:14:08.909Z,75.92
2022-12-31T22:16:35.384Z,75.53
2022-12-31T22:19:01.723Z,76.40
2022-12-31T22:21:29.481Z,75.59
2022-12-31T22:23:56.736Z,75.99
2022-12-31T22:26:25.710Z,75.46
2022-12-31T22:28:52.291Z,75.89
2022-12-31T22:31:21.724Z,75.87
2022-12-31T22:33:48.171Z,75.81
2022-12-31T22:36:18.308Z,75.83
2022-12-31T22:38:45.640Z,75.52
2022-12-31T22:41:14.782Z,75.22
2022-12-31T22:43:43.754Z,76.03
2022-12-31T22:46:13.170Z,75.81
2022-12-31T22:48:40.798Z,75.72
2022-12-31T22:51:08.154Z,75.57
2022-12-31T22:53:35.139Z,75.88
2022-12-31T22:56:01.626Z,75.96
2022-12-31T22:58:27.988Z,75.93
2022-12-31T23:00:54.437Z,75.85
2022-12-31T23:03:20.857Z,76.23
2022-12-31T23:05:50.574Z,75.74
2022-12-31T23:08:23.229Z,75.71
2022-12-31T23:10:51.052Z,76.21
2022-12-31T23:13:17.349Z,75.57
2022-12-31T23:15:45.035Z,76.52
2022-12-31T23:18:11.380Z,76.17
2022-12-31T23:20:37.982Z,76.27
2022-12-31T23:23:05.416Z,76.56
2022-12-31T23:25:32.310Z,76.52
2022-12-31T23:27:58.852Z,76.38
2022-12-31T23:30:25.269Z,76.26
2022-12-31T23:32:51.651Z,75.63
2022-12-31T23:35:18.030Z,76.35
2022-12-31T23:37:44.454Z,76.11
2022-12-31T23:40:17.219Z,76.08
2022-12-31T23:42:47.308Z,75.62
2022-12-31T23:45:13.586Z,76.20
2022-12-31T23:47:40.012Z,76.36
2022-12-31T23:50:07.017Z,76.04
2022-12-31T23:52:33.303Z,75.57
2022-12-31T23:55:00.059Z,75.72
2022-12-31T23:57:26.468Z,75.42
2022-12-31T23:59:52.786Z,75.36
